createdAt,value
2024-03-05T00:02:13.076Z,62.67
2024-03-05T00:04:42.387Z,56.90
2024-03-05T00:07:10.352Z,60.45
2024-03-05T00:09:38.464Z,58.15
2024-03-05T00:12:06.445Z,56.42
2024-03-05T00:14:34.703Z,63.10
2024-03-05T00:17:04.510Z,62.50
2024-03-05T00:19:33.410Z,50.50
2024-03-05T00:22:03.373Z,54.85
2024-03-05T00:24:31.284Z,60.80
2024-03-05T00:26:59.120Z,55.55
2024-03-05T00:29:28.292Z,61.22
2024-03-05T00:31:56.430Z,53.92
2024-03-05T00:34:24.859Z,54.83
2024-03-05T00:36:54.030Z,52.60
2024-03-05T00:39:23.745Z,56.47
2024-03-05T00:41:51.680Z,57.13
2024-03-05T00:44:24.287Z,57.92
2024-03-05T00:47:00.000Z,61.00
2024-03-05T00:49:30.144Z,60.47
2024-03-05T00:52:02.423Z,64.30
2024-03-05T00:54:32.153Z,57.28
2024-03-05T00:56:59.994Z,65.22
2024-03-05T00:59:28.347Z,56.95
2024-03-05T01:01:58.746Z,66.68
2024-03-05T01:04:27.182Z,61.85
2024-03-05T01:06:56.794Z,49.03
2024-03-05T01:09:26.156Z,51.20
2024-03-05T01:11:55.403Z,54.80
2024-03-05T01:14:23.784Z,63.90
2024-03-05T01:16:51.712Z,59.00
2024-03-05T01:19:19.659Z,61.17
2024-03-05T01:21:48.378Z,66.53
2024-03-05T01:24:17.832Z,58.78
2024-03-05T01:26:45.749Z,58.67
2024-03-05T01:29:18.324Z,58.45
2024-03-05T01:31:46.806Z,69.88
2024-03-05T01:34:14.444Z,64.75
2024-03-05T01:36:42.157Z,56.97
2024-03-05T01:39:10.726Z,61.25
2024-03-05T01:41:38.515Z,62.72
2024-03-05T01:44:06.261Z,59.22
2024-03-05T01:46:35.549Z,58.05
2024-03-05T01:49:06.001Z,59.40
2024-03-05T01:51:33.706Z,59.25
2024-03-05T01:54:04.624Z,53.47
2024-03-05T01:56:34.500Z,55.30
2024-03-05T01:59:03.285Z,53.90
2024-03-05T02:01:32.321Z,68.05
2024-03-05T02:04:02.344Z,51.70
2024-03-05T02:06:34.750Z,62.33
2024-03-05T02:09:05.344Z,61.67
2024-03-05T02:11:33.893Z,64.20
2024-03-05T02:14:04.748Z,46.85
2024-03-05T02:16:32.446Z,67.65
2024-03-05T02:19:02.095Z,53.22
2024-03-05T02:21:33.170Z,62.03
2024-03-05T02:24:00.793Z,56.88
2024-03-05T02:26:30.455Z,52.13
2024-03-05T02:28:58.659Z,60.42
2024-03-05T02:31:28.787Z,49.40
2024-03-05T02:33:56.882Z,55.88
2024-03-05T02:36:24.509Z,56.10
2024-03-05T02:38:53.501Z,59.80
2024-03-05T02:41:22.316Z,56.85
2024-03-05T02:43:50.062Z,58.33
2024-03-05T02:46:18.125Z,54.75
2024-03-05T02:48:45.945Z,56.08
2024-03-05T02:51:14.067Z,65.07
2024-03-05T02:53:41.834Z,52.40
2024-03-05T02:56:12.845Z,56.47
2024-03-05T02:58:40.684Z,59.80
2024-03-05T03:01:09.247Z,57.15
2024-03-05T03:03:37.292Z,57.15
2024-03-05T03:06:08.468Z,56.92
2024-03-05T03:08:37.646Z,61.90
2024-03-05T03:11:09.422Z,59.63
2024-03-05T03:13:40.898Z,58.03
2024-03-05T03:16:08.630Z,55.95
2024-03-05T03:18:36.240Z,77.10
2024-03-05T03:21:06.792Z,67.97
2024-03-05T03:23:35.684Z,66.30
2024-03-05T03:26:05.409Z,71.53
2024-03-05T03:28:33.214Z,64.22
2024-03-05T03:31:07.182Z,56.15
2024-03-05T03:33:35.068Z,61.40
2024-03-05T03:36:11.830Z,69.18
2024-03-05T03:38:40.099Z,63.63
2024-03-05T03:41:09.381Z,72.10
2024-03-05T03:43:38.480Z,69.72
2024-03-05T03:46:09.981Z,59.80
2024-03-05T03:48:39.471Z,62.85
2024-03-05T03:51:08.665Z,69.38
2024-03-05T03:53:37.901Z,52.63
2024-03-05T03:56:07.537Z,64.47
2024-03-05T03:58:35.494Z,60.05
2024-03-05T04:01:06.230Z,65.88
2024-03-05T04:03:35.387Z,73.97
2024-03-05T04:06:03.245Z,76.82
2024-03-05T04:08:31.066Z,74.28
2024-03-05T04:10:59.088Z,70.88
2024-03-05T04:13:28.867Z,71.32
2024-03-05T04:15:56.486Z,74.38
2024-03-05T04:18:24.065Z,66.03
2024-03-05T04:20:53.538Z,67.53
2024-03-05T04:23:21.576Z,75.95
2024-03-05T04:25:53.499Z,72.03
2024-03-05T04:28:23.492Z,69.53
2024-03-05T04:31:01.140Z,71.07
2024-03-05T04:33:29.661Z,66.57
2024-03-05T04:35:59.386Z,66.43
2024-03-05T04:38:27.354Z,58.80
2024-03-05T04:40:57.494Z,65.95
2024-03-05T04:43:26.775Z,62.70
2024-03-05T04:45:56.789Z,59.50
2024-03-05T04:48:27.089Z,66.55
2024-03-05T04:50:56.962Z,76.72
2024-03-05T04:53:27.504Z,66.00
2024-03-05T04:55:57.567Z,70.70
2024-03-05T04:58:25.529Z,66.40
2024-03-05T05:00:55.496Z,66.45
2024-03-05T05:03:23.601Z,80.82
2024-03-05T05:05:51.348Z,76.70
2024-03-05T05:08:20.337Z,72.40
2024-03-05T05:10:50.614Z,65.28
2024-03-05T05:13:23.686Z,67.85
2024-03-05T05:15:52.177Z,73.25
2024-03-05T05:18:21.507Z,74.70
2024-03-05T05:20:53.441Z,67.68
2024-03-05T05:23:21.167Z,73.05
2024-03-05T05:25:53.628Z,56.83
2024-03-05T05:28:22.345Z,67.85
2024-03-05T05:30:50.187Z,68.03
2024-03-05T05:33:18.489Z,76.03
2024-03-05T05:35:46.649Z,79.20
2024-03-05T05:38:19.817Z,70.10
2024-03-05T05:40:47.544Z,68.05
2024-03-05T05:43:16.543Z,61.90
2024-03-05T05:45:44.208Z,60.95
2024-03-05T05:48:28.816Z,71.80
2024-03-05T05:51:00.026Z,70.40
2024-03-05T05:53:27.808Z,77.72
2024-03-05T05:55:55.766Z,61.35
2024-03-05T05:58:27.597Z,62.67
2024-03-05T06:00:55.521Z,64.75
2024-03-05T06:03:24.042Z,73.80
2024-03-05T06:05:55.872Z,66.07
2024-03-05T06:08:23.681Z,83.03
2024-03-05T06:10:56.552Z,65.22
2024-03-05T06:13:26.216Z,81.72
2024-03-05T06:15:56.145Z,66.65
2024-03-05T06:18:24.864Z,70.82
2024-03-05T06:20:52.868Z,68.40
2024-03-05T06:23:20.922Z,56.22
2024-03-05T06:25:49.040Z,77.43
2024-03-05T06:28:18.917Z,76.50
2024-03-05T06:30:50.131Z,72.78
2024-03-05T06:33:19.429Z,76.63
2024-03-05T06:35:47.981Z,80.47
2024-03-05T06:38:20.214Z,78.38
2024-03-05T06:40:48.580Z,81.05
2024-03-05T06:43:23.541Z,69.88
2024-03-05T06:45:55.967Z,67.35
2024-03-05T06:48:25.365Z,86.13
2024-03-05T06:50:58.970Z,72.57
2024-03-05T06:53:44.372Z,71.82
2024-03-05T06:56:29.971Z,68.38
2024-03-05T06:58:59.607Z,63.03
2024-03-05T07:01:34.406Z,69.88
2024-03-05T07:04:02.882Z,70.10
2024-03-05T07:06:33.400Z,62.67
2024-03-05T07:09:01.922Z,58.13
2024-03-05T07:11:30.879Z,83.75
2024-03-05T07:13:59.210Z,65.32
2024-03-05T07:16:27.275Z,67.20
2024-03-05T07:18:56.595Z,69.90
2024-03-05T07:21:25.453Z,70.93
2024-03-05T07:23:55.371Z,68.65
2024-03-05T07:26:24.453Z,70.80
2024-03-05T07:28:52.437Z,80.65
2024-03-05T07:31:21.543Z,73.38
2024-03-05T07:33:53.317Z,73.30
2024-03-05T07:36:23.273Z,71.43
2024-03-05T07:38:52.945Z,69.32
2024-03-05T07:41:27.201Z,74.05
2024-03-05T07:44:02.191Z,63.80
2024-03-05T07:46:30.564Z,74.88
2024-03-05T07:48:58.402Z,69.20
2024-03-05T07:51:40.723Z,75.57
2024-03-05T07:54:12.359Z,81.50
2024-03-05T07:56:40.391Z,74.00
2024-03-05T07:59:08.469Z,60.95
2024-03-05T08:01:38.529Z,77.32
2024-03-05T08:04:09.266Z,82.57
2024-03-05T08:06:38.553Z,73.50
2024-03-05T08:09:06.489Z,80.05
2024-03-05T08:11:35.522Z,72.60
2024-03-05T08:14:05.388Z,68.22
2024-03-05T08:16:37.805Z,63.78
2024-03-05T08:19:06.072Z,79.05
2024-03-05T08:21:39.804Z,74.28
2024-03-05T08:24:10.623Z,62.03
2024-03-05T08:26:38.722Z,77.65
2024-03-05T08:29:07.242Z,72.90
2024-03-05T08:31:35.356Z,81.03
2024-03-05T08:34:10.788Z,69.03
2024-03-05T08:36:41.017Z,74.32
2024-03-05T08:39:19.349Z,78.68
2024-03-05T08:41:48.571Z,69.28
2024-03-05T08:44:19.316Z,69.05
2024-03-05T08:46:47.232Z,64.13
2024-03-05T08:49:14.832Z,61.65
2024-03-05T08:51:43.782Z,69.93
2024-03-05T08:54:13.715Z,80.72
2024-03-05T08:56:42.975Z,68.30
2024-03-05T08:59:10.714Z,73.45
2024-03-05T09:01:38.459Z,79.88
2024-03-05T09:04:08.415Z,69.35
2024-03-05T09:06:36.169Z,74.70
2024-03-05T09:09:06.305Z,64.03
2024-03-05T09:11:36.328Z,69.10
2024-03-05T09:14:04.538Z,67.93
2024-03-05T09:16:32.906Z,101.93
2024-03-05T09:19:00.888Z,94.22
2024-03-05T09:21:29.851Z,85.30
2024-03-05T09:23:57.699Z,80.63
2024-03-05T09:26:27.319Z,51.28
2024-03-05T09:28:55.859Z,39.45
2024-03-05T09:31:26.435Z,36.88
2024-03-05T09:33:54.486Z,20.48
2024-03-05T09:36:22.433Z,25.75
2024-03-05T09:38:54.163Z,24.85
2024-03-05T09:41:21.805Z,17.58
2024-03-05T09:43:58.316Z,18.63
2024-03-05T09:46:27.217Z,22.40
2024-03-05T09:48:57.262Z,20.00
2024-03-05T09:51:31.091Z,17.30
2024-03-05T09:53:58.636Z,16.40
2024-03-05T09:56:26.718Z,17.73
2024-03-05T09:58:55.754Z,16.00
2024-03-05T10:01:24.476Z,26.15
2024-03-05T10:03:52.880Z,26.80
2024-03-05T10:06:20.433Z,22.63
2024-03-05T10:08:51.231Z,21.30
2024-03-05T10:11:19.950Z,24.08
2024-03-05T10:13:47.652Z,23.17
2024-03-05T10:16:20.634Z,28.50
2024-03-05T10:18:48.874Z,27.65
2024-03-05T10:21:20.331Z,29.33
2024-03-05T10:23:49.631Z,23.13
2024-03-05T10:26:21.010Z,32.50
2024-03-05T10:28:52.515Z,22.38
2024-03-05T10:31:25.742Z,23.25
2024-03-05T10:33:55.530Z,25.38
2024-03-05T10:36:26.936Z,32.50
2024-03-05T10:38:55.199Z,23.17
2024-03-05T10:41:31.885Z,29.50
2024-03-05T10:44:07.973Z,26.30
2024-03-05T10:46:38.435Z,33.05
2024-03-05T10:49:08.573Z,28.00
2024-03-05T10:51:38.827Z,21.65
2024-03-05T10:54:07.525Z,36.35
2024-03-05T10:56:44.257Z,19.90
2024-03-05T10:59:26.889Z,22.00
2024-03-05T11:01:57.153Z,22.17
2024-03-05T11:04:25.538Z,20.63
2024-03-05T11:06:56.683Z,24.90
2024-03-05T11:09:29.150Z,19.42
2024-03-05T11:12:01.546Z,21.55
2024-03-05T11:14:30.045Z,23.38
2024-03-05T11:16:59.903Z,18.88
2024-03-05T11:19:29.370Z,15.90
2024-03-05T11:22:00.278Z,21.38
2024-03-05T11:24:31.236Z,22.00
2024-03-05T11:27:14.389Z,18.70
2024-03-05T11:29:45.763Z,19.10
2024-03-05T11:32:15.784Z,19.40
2024-03-05T11:34:56.091Z,22.60
2024-03-05T11:37:29.929Z,20.85
2024-03-05T11:40:13.639Z,20.95
2024-03-05T11:42:58.291Z,21.33
2024-03-05T11:45:47.631Z,18.08
2024-03-05T11:48:34.771Z,13.88
2024-03-05T11:51:05.905Z,17.13
2024-03-05T11:53:42.049Z,15.23
2024-03-05T11:56:14.126Z,16.05
2024-03-05T11:58:42.159Z,17.33
2024-03-05T12:01:11.322Z,13.18
2024-03-05T12:03:43.094Z,16.63
2024-03-05T12:06:13.697Z,13.60
2024-03-05T12:08:41.288Z,13.35
2024-03-05T12:11:09.820Z,10.93
2024-03-05T12:13:37.709Z,12.85
2024-03-05T12:16:12.676Z,11.18
2024-03-05T12:18:42.903Z,14.57
2024-03-05T12:21:11.705Z,17.05
2024-03-05T12:23:42.599Z,14.68
2024-03-05T12:26:11.285Z,13.73
2024-03-05T12:28:38.921Z,11.60
2024-03-05T12:31:07.311Z,13.75
2024-03-05T12:33:34.893Z,15.27
2024-03-05T12:36:04.951Z,12.73
2024-03-05T12:38:33.737Z,18.63
2024-03-05T12:41:02.901Z,16.33
2024-03-05T12:43:30.969Z,16.95
2024-03-05T12:46:05.104Z,12.60
2024-03-05T12:48:33.695Z,12.52
2024-03-05T12:51:01.456Z,11.13
2024-03-05T12:53:30.786Z,10.57
2024-03-05T12:56:05.079Z,10.40
2024-03-05T12:58:40.657Z,10.70
2024-03-05T13:01:16.680Z,10.15
2024-03-05T13:03:44.961Z,8.77
2024-03-05T13:06:13.023Z,7.43
2024-03-05T13:08:42.195Z,7.80
2024-03-05T13:11:09.983Z,9.60
2024-03-05T13:13:37.592Z,8.85
2024-03-05T13:16:09.421Z,9.48
2024-03-05T13:18:37.097Z,9.63
2024-03-05T13:21:07.146Z,9.23
2024-03-05T13:23:39.466Z,8.18
2024-03-05T13:26:11.815Z,10.00
2024-03-05T13:28:39.485Z,9.48
2024-03-05T13:31:07.651Z,8.40
2024-03-05T13:33:35.553Z,9.40
2024-03-05T13:36:03.368Z,9.38
2024-03-05T13:38:32.022Z,7.45
2024-03-05T13:41:08.113Z,10.55
2024-03-05T13:43:37.618Z,7.50
2024-03-05T13:46:05.659Z,7.85
2024-03-05T13:48:33.884Z,8.27
2024-03-05T13:51:03.906Z,5.68
2024-03-05T13:53:32.039Z,7.22
2024-03-05T13:55:59.919Z,6.80
2024-03-05T13:58:27.697Z,4.60
2024-03-05T14:00:58.486Z,7.22
2024-03-05T14:03:26.932Z,3.30
2024-03-05T14:05:54.641Z,2.70
2024-03-05T14:08:22.237Z,3.47
2024-03-05T14:10:51.381Z,8.30
2024-03-05T14:13:23.518Z,2.55
2024-03-05T14:15:53.220Z,5.95
2024-03-05T14:18:23.444Z,2.10
2024-03-05T14:20:53.716Z,3.50
2024-03-05T14:23:25.314Z,3.25
2024-03-05T14:25:58.464Z,2.58
2024-03-05T14:28:28.309Z,2.28
2024-03-05T14:30:57.100Z,2.08
2024-03-05T14:33:29.064Z,1.85
2024-03-05T14:35:57.508Z,3.55
2024-03-05T14:38:25.989Z,3.90
2024-03-05T14:40:56.193Z,2.60
2024-03-05T14:43:28.610Z,2.63
2024-03-05T14:45:56.350Z,2.13
2024-03-05T14:48:26.811Z,4.22
2024-03-05T14:50:56.731Z,2.58
2024-03-05T14:53:24.826Z,2.42
2024-03-05T14:55:52.677Z,2.50
2024-03-05T14:58:20.292Z,2.28
2024-03-05T15:00:52.497Z,2.08
2024-03-05T15:03:20.228Z,2.25
2024-03-05T15:05:52.964Z,2.03
2024-03-05T15:08:23.450Z,2.05
2024-03-05T15:10:51.319Z,2.42
2024-03-05T15:13:20.438Z,2.00
2024-03-05T15:15:49.960Z,3.65
2024-03-05T15:18:18.545Z,2.30
2024-03-05T15:20:47.419Z,2.22
2024-03-05T15:23:16.819Z,2.40
2024-03-05T15:25:46.986Z,2.20
2024-03-05T15:28:16.803Z,2.22
2024-03-05T15:30:45.558Z,2.40
2024-03-05T15:33:13.615Z,2.10
2024-03-05T15:35:41.495Z,2.75
2024-03-05T15:38:14.511Z,1.85
2024-03-05T15:40:51.866Z,2.15
2024-03-05T15:43:25.079Z,2.20
2024-03-05T15:45:53.977Z,2.95
2024-03-05T15:48:24.779Z,4.30
2024-03-05T15:50:54.769Z,2.63
2024-03-05T15:53:24.394Z,2.08
2024-03-05T15:56:02.612Z,3.55
2024-03-05T15:58:47.959Z,2.40
2024-03-05T16:01:17.772Z,2.30
2024-03-05T16:06:19.473Z,2.30
2024-03-05T16:08:49.656Z,2.40
2024-03-05T16:11:20.692Z,2.95
2024-03-05T16:14:00.703Z,4.47
2024-03-05T16:16:28.613Z,5.60
2024-03-05T16:19:03.515Z,2.25
2024-03-05T16:21:33.891Z,2.58
2024-03-05T16:24:01.494Z,2.50
2024-03-05T16:26:37.030Z,3.80
2024-03-05T16:29:07.259Z,2.63
2024-03-05T16:31:45.386Z,3.20
2024-03-05T16:34:34.238Z,4.10
2024-03-05T16:37:04.083Z,3.35
2024-03-05T16:39:33.429Z,2.30
2024-03-05T16:42:18.063Z,3.38
2024-03-05T16:44:46.030Z,4.00
2024-03-05T16:47:20.548Z,2.50
2024-03-05T16:50:28.154Z,2.30
2024-03-05T16:53:19.711Z,3.50
2024-03-05T16:55:51.839Z,2.45
2024-03-05T16:58:25.737Z,2.50
2024-03-05T17:00:58.307Z,2.13
2024-03-05T17:03:32.209Z,2.55
2024-03-05T17:06:10.391Z,3.10
2024-03-05T17:08:46.806Z,3.10
2024-03-05T17:11:16.969Z,2.40
2024-03-05T17:13:49.673Z,2.38
2024-03-05T17:16:22.591Z,2.88
2024-03-05T17:18:52.842Z,3.05
2024-03-05T17:21:27.679Z,4.22
2024-03-05T17:23:55.716Z,4.45
2024-03-05T17:26:23.535Z,2.83
2024-03-05T17:28:53.607Z,14.63
2024-03-05T17:31:21.302Z,9.73
2024-03-05T17:33:49.163Z,10.18
2024-03-05T17:36:17.082Z,4.63
2024-03-05T17:38:44.878Z,2.92
2024-03-05T17:41:14.187Z,3.03
2024-03-05T17:43:44.735Z,3.08
2024-03-05T17:46:13.837Z,2.88
2024-03-05T17:48:41.550Z,3.72
2024-03-05T17:51:11.300Z,2.97
2024-03-05T17:53:39.593Z,3.30
2024-03-05T17:56:10.836Z,2.75
2024-03-05T17:58:38.989Z,2.80
2024-03-05T18:01:13.074Z,10.15
2024-03-05T18:03:44.729Z,7.85
2024-03-05T18:06:17.772Z,12.43
2024-03-05T18:08:47.513Z,11.93
2024-03-05T18:11:19.232Z,10.82
2024-03-05T18:13:47.098Z,15.88
2024-03-05T18:16:14.842Z,9.27
2024-03-05T18:18:46.702Z,6.70
2024-03-05T18:21:16.097Z,6.60
2024-03-05T18:23:43.717Z,7.45
2024-03-05T18:26:13.157Z,6.25
2024-03-05T18:28:42.546Z,6.93
2024-03-05T18:31:10.411Z,7.80
2024-03-05T18:33:38.633Z,8.77
2024-03-05T18:36:11.263Z,11.95
2024-03-05T18:38:40.098Z,6.03
2024-03-05T18:41:10.520Z,10.35
2024-03-05T18:43:42.102Z,15.70
2024-03-05T18:46:10.726Z,8.25
2024-03-05T18:48:40.598Z,13.43
2024-03-05T18:51:11.063Z,9.43
2024-03-05T18:53:43.665Z,9.88
2024-03-05T18:56:19.267Z,8.45
2024-03-05T18:58:51.017Z,8.73
2024-03-05T19:01:19.488Z,9.93
2024-03-05T19:03:49.249Z,9.13
2024-03-05T19:06:25.717Z,5.75
2024-03-05T19:08:53.627Z,8.48
2024-03-05T19:11:21.853Z,6.70
2024-03-05T19:13:52.226Z,6.28
2024-03-05T19:16:21.466Z,7.38
2024-03-05T19:18:54.046Z,10.88
2024-03-05T19:21:31.093Z,10.80
2024-03-05T19:23:58.914Z,10.48
2024-03-05T19:26:27.047Z,6.07
2024-03-05T19:28:54.839Z,7.50
2024-03-05T19:31:22.824Z,10.23
2024-03-05T19:33:52.279Z,9.57
2024-03-05T19:36:21.382Z,12.30
2024-03-05T19:38:55.798Z,12.30
2024-03-05T19:41:23.917Z,10.18
2024-03-05T19:43:52.887Z,6.22
2024-03-05T19:46:21.019Z,9.77
2024-03-05T19:48:56.347Z,8.23
2024-03-05T19:51:24.770Z,9.35
2024-03-05T19:53:53.842Z,9.50
2024-03-05T19:56:25.208Z,12.63
2024-03-05T19:58:53.056Z,8.57
2024-03-05T20:01:21.706Z,10.18
2024-03-05T20:03:50.123Z,11.65
2024-03-05T20:06:19.466Z,12.13
2024-03-05T20:08:48.135Z,9.50
2024-03-05T20:11:19.412Z,8.50
2024-03-05T20:13:47.458Z,7.00
2024-03-05T20:16:15.810Z,8.18
2024-03-05T20:18:44.232Z,7.93
2024-03-05T20:21:11.871Z,10.30
2024-03-05T20:23:39.864Z,6.32
2024-03-05T20:26:11.162Z,9.32
2024-03-05T20:28:42.203Z,13.15
2024-03-05T20:31:12.788Z,16.08
2024-03-05T20:33:41.985Z,11.38
2024-03-05T20:36:10.822Z,13.90
2024-03-05T20:38:42.233Z,15.07
2024-03-05T20:41:10.086Z,6.90
2024-03-05T20:43:37.947Z,7.63
2024-03-05T20:46:07.206Z,7.38
2024-03-05T20:48:35.371Z,11.60
2024-03-05T20:51:04.057Z,10.98
2024-03-05T20:53:31.745Z,10.93
2024-03-05T20:56:01.256Z,6.63
2024-03-05T20:58:28.974Z,5.55
2024-03-05T21:00:56.947Z,9.23
2024-03-05T21:03:26.175Z,5.47
2024-03-05T21:05:53.980Z,8.05
2024-03-05T21:08:25.330Z,8.05
2024-03-05T21:10:54.383Z,8.50
2024-03-05T21:13:32.326Z,8.05
2024-03-05T21:16:05.369Z,8.27
2024-03-05T21:18:41.243Z,7.05
2024-03-05T21:21:14.802Z,13.65
2024-03-05T21:23:43.111Z,6.57
2024-03-05T21:26:23.179Z,7.57
2024-03-05T21:28:59.091Z,7.45
2024-03-05T21:31:29.821Z,8.27
2024-03-05T21:33:59.628Z,10.32
2024-03-05T21:36:27.542Z,7.20
2024-03-05T21:38:55.828Z,6.95
2024-03-05T21:41:25.463Z,6.68
2024-03-05T21:43:52.965Z,8.10
2024-03-05T21:46:21.357Z,9.52
2024-03-05T21:48:49.475Z,14.23
2024-03-05T21:51:22.252Z,11.63
2024-03-05T21:53:49.863Z,11.13
2024-03-05T21:56:17.851Z,8.07
2024-03-05T21:58:46.091Z,7.05
2024-03-05T22:01:13.957Z,7.35
2024-03-05T22:03:41.732Z,6.55
2024-03-05T22:06:15.497Z,6.45
2024-03-05T22:08:50.728Z,10.85
2024-03-05T22:11:18.734Z,9.73
2024-03-05T22:13:51.098Z,7.97
2024-03-05T22:16:20.196Z,7.80
2024-03-05T22:18:49.219Z,10.82
2024-03-05T22:21:19.659Z,7.90
2024-03-05T22:23:48.667Z,6.18
2024-03-05T22:26:17.494Z,7.78
2024-03-05T22:28:45.155Z,7.88
2024-03-05T22:31:12.921Z,10.98
2024-03-05T22:33:40.467Z,13.38
2024-03-05T22:36:08.249Z,12.63
2024-03-05T22:38:35.828Z,8.55
2024-03-05T22:41:05.086Z,15.65
2024-03-05T22:43:32.889Z,12.10
2024-03-05T22:46:00.396Z,9.32
2024-03-05T22:48:29.488Z,16.13
2024-03-05T22:50:58.075Z,12.20
2024-03-05T22:53:25.821Z,11.10
2024-03-05T22:55:53.508Z,11.65
2024-03-05T22:58:22.724Z,12.35
2024-03-05T23:00:51.906Z,12.27
2024-03-05T23:03:20.670Z,11.60
2024-03-05T23:05:48.382Z,7.85
2024-03-05T23:08:16.181Z,10.93
2024-03-05T23:10:44.643Z,9.75
2024-03-05T23:13:12.395Z,11.60
2024-03-05T23:15:41.463Z,14.43
2024-03-05T23:18:09.699Z,13.05
2024-03-05T23:20:39.257Z,14.30
2024-03-05T23:23:06.916Z,12.52
2024-03-05T23:25:35.446Z,15.63
2024-03-05T23:28:03.770Z,13.82
2024-03-05T23:30:31.531Z,12.68
2024-03-05T23:33:00.522Z,10.88
2024-03-05T23:35:28.711Z,9.32
2024-03-05T23:37:56.378Z,9.73
2024-03-05T23:40:24.685Z,16.17
2024-03-05T23:42:53.128Z,14.60
2024-03-05T23:45:20.951Z,14.82
2024-03-05T23:47:48.489Z,12.70
2024-03-05T23:50:21.379Z,16.75
2024-03-05T23:52:48.942Z,17.10
2024-03-05T23:55:19.623Z,18.88
2024-03-05T23:57:47.745Z,17.25
